createdAt,value
2022-07-30T00:01:42.645Z,28.00
2022-07-30T00:04:45.048Z,28.20
2022-07-30T00:07:47.483Z,28.20
2022-07-30T00:10:50.265Z,27.70
2022-07-30T00:13:52.453Z,29.10
2022-07-30T00:16:54.649Z,28.90
2022-07-30T00:19:57.530Z,28.30
2022-07-30T00:23:04.684Z,28.50
2022-07-30T00:26:06.909Z,28.10
2022-07-30T00:29:09.382Z,28.10
2022-07-30T00:32:11.537Z,28.30
2022-07-30T00:35:13.553Z,28.20
2022-07-30T00:38:15.722Z,27.90
2022-07-30T00:41:17.962Z,28.60
2022-07-30T00:44:20.248Z,28.30
2022-07-30T00:47:22.172Z,28.20
2022-07-30T00:50:24.400Z,28.60
2022-07-30T00:53:26.300Z,28.80
2022-07-30T00:56:28.572Z,28.40
2022-07-30T00:59:31.631Z,28.00
2022-07-30T01:02:34.315Z,28.30
2022-07-30T01:05:36.431Z,28.30
2022-07-30T01:08:38.707Z,28.30
2022-07-30T01:11:42.302Z,28.00
2022-07-30T01:14:44.588Z,29.10
2022-07-30T01:17:53.126Z,28.70
2022-07-30T01:21:05.351Z,28.90
2022-07-30T01:24:27.293Z,29.00
2022-07-30T01:27:43.302Z,28.40
2022-07-30T01:30:46.347Z,28.50
2022-07-30T01:33:52.716Z,28.70
2022-07-30T01:36:58.819Z,28.40
2022-07-30T01:40:01.429Z,28.30
2022-07-30T01:43:03.615Z,28.20
2022-07-30T01:46:08.564Z,28.30
2022-07-30T01:49:12.337Z,28.40
2022-07-30T01:52:16.869Z,28.10
2022-07-30T01:55:32.662Z,28.00
2022-07-30T01:58:37.483Z,28.40
2022-07-30T02:01:39.747Z,28.60
2022-07-30T02:04:41.992Z,28.80
2022-07-30T02:07:56.302Z,28.60
2022-07-30T02:11:37.470Z,29.20
2022-07-30T02:14:53.713Z,29.10
2022-07-30T02:18:10.776Z,28.80
2022-07-30T02:21:13.484Z,29.40
2022-07-30T02:24:21.815Z,29.60
2022-07-30T02:27:29.218Z,29.20
2022-07-30T02:30:34.391Z,29.00
2022-07-30T02:33:41.351Z,29.00
2022-07-30T02:36:52.315Z,28.70
2022-07-30T02:39:55.855Z,29.40
2022-07-30T02:42:59.477Z,29.90
2022-07-30T02:46:02.806Z,29.60
2022-07-30T02:49:06.957Z,29.80
2022-07-30T02:52:15.639Z,29.60
2022-07-30T02:55:18.552Z,29.10
2022-07-30T02:58:23.895Z,29.70
2022-07-30T03:01:28.290Z,29.90
2022-07-30T03:04:32.847Z,29.80
2022-07-30T03:07:36.487Z,29.50
2022-07-30T03:10:40.588Z,29.20
2022-07-30T03:13:42.814Z,29.00
2022-07-30T03:16:48.905Z,29.50
2022-07-30T03:19:51.833Z,29.50
2022-07-30T03:22:55.174Z,30.20
2022-07-30T03:26:01.295Z,30.70
2022-07-30T03:29:04.024Z,30.30
2022-07-30T03:32:07.016Z,29.90
2022-07-30T03:35:17.021Z,29.50
2022-07-30T03:38:20.253Z,29.60
2022-07-30T03:41:23.439Z,29.90
2022-07-30T03:44:25.728Z,29.80
2022-07-30T03:47:28.437Z,30.00
2022-07-30T03:50:31.022Z,29.90
2022-07-30T03:53:33.432Z,30.00
2022-07-30T03:56:35.918Z,29.90
2022-07-30T03:59:39.387Z,29.80
2022-07-30T04:02:50.386Z,29.70
2022-07-30T04:05:52.568Z,29.40
2022-07-30T04:08:54.817Z,29.00
2022-07-30T04:11:56.854Z,28.70
2022-07-30T04:14:59.368Z,28.80
2022-07-30T04:18:04.514Z,28.50
2022-07-30T04:21:17.135Z,28.60
2022-07-30T04:24:20.257Z,29.30
2022-07-30T04:27:25.322Z,29.50
2022-07-30T04:30:28.081Z,30.50
2022-07-30T04:33:30.451Z,29.60
2022-07-30T04:36:33.066Z,29.90
2022-07-30T04:39:35.278Z,29.50
2022-07-30T04:42:37.294Z,29.10
2022-07-30T04:45:40.894Z,29.10
2022-07-30T04:48:42.847Z,29.00
2022-07-30T04:51:51.791Z,29.70
2022-07-30T04:54:57.802Z,29.60
2022-07-30T04:58:02.053Z,29.20
2022-07-30T05:01:05.386Z,28.70
2022-07-30T05:04:08.912Z,28.30
2022-07-30T05:07:14.552Z,28.30
2022-07-30T05:10:18.088Z,29.20
2022-07-30T05:13:20.525Z,29.30
2022-07-30T05:16:25.085Z,29.10
2022-07-30T05:19:27.148Z,28.50
2022-07-30T05:22:30.791Z,28.40
2022-07-30T05:25:32.774Z,28.60
2022-07-30T05:28:34.980Z,28.70
2022-07-30T05:31:39.373Z,28.10
2022-07-30T05:34:41.602Z,28.40
2022-07-30T05:37:43.626Z,28.50
2022-07-30T05:40:46.618Z,28.00
2022-07-30T05:43:48.604Z,28.40
2022-07-30T05:46:58.648Z,29.10
2022-07-30T05:50:04.752Z,28.50
2022-07-30T05:53:07.446Z,28.40
2022-07-30T05:56:09.510Z,28.80
2022-07-30T05:59:11.651Z,29.40
2022-07-30T06:02:13.596Z,29.00
2022-07-30T06:05:15.733Z,29.70
2022-07-30T06:08:17.690Z,29.20
2022-07-30T06:11:20.100Z,29.10
2022-07-30T06:14:22.153Z,28.90
2022-07-30T06:17:24.377Z,28.60
2022-07-30T06:20:26.473Z,28.50
2022-07-30T06:23:28.646Z,28.70
2022-07-30T06:26:30.619Z,29.10
2022-07-30T06:29:32.824Z,29.70
2022-07-30T06:32:35.858Z,29.40
2022-07-30T06:35:38.114Z,30.00
2022-07-30T06:38:40.148Z,30.00
2022-07-30T06:41:42.324Z,29.40
2022-07-30T06:44:44.612Z,29.00
2022-07-30T06:47:46.989Z,28.90
2022-07-30T06:50:48.980Z,28.60
2022-07-30T06:53:51.107Z,29.10
2022-07-30T06:56:53.201Z,29.10
2022-07-30T06:59:56.609Z,28.90
2022-07-30T07:02:59.333Z,28.90
2022-07-30T07:06:01.539Z,28.50
2022-07-30T07:09:04.631Z,28.80
2022-07-30T07:12:06.958Z,29.10
2022-07-30T07:15:09.847Z,29.30
2022-07-30T07:18:12.838Z,29.40
2022-07-30T07:21:15.634Z,29.30
2022-07-30T07:24:17.775Z,29.30
2022-07-30T07:27:19.803Z,29.00
2022-07-30T07:30:22.003Z,29.10
2022-07-30T07:33:23.996Z,30.40
2022-07-30T07:36:26.158Z,29.90
2022-07-30T07:39:28.172Z,29.30
2022-07-30T07:42:30.330Z,29.40
2022-07-30T07:45:36.407Z,29.20
2022-07-30T07:48:39.553Z,29.00
2022-07-30T07:51:48.015Z,29.20
2022-07-30T07:54:50.834Z,29.10
2022-07-30T07:57:52.985Z,28.70
2022-07-30T08:00:56.512Z,28.70
2022-07-30T08:03:58.603Z,29.80
2022-07-30T08:07:00.884Z,29.90
2022-07-30T08:10:03.067Z,29.40
2022-07-30T08:13:05.346Z,29.40
2022-07-30T08:16:12.561Z,29.20
2022-07-30T08:19:14.997Z,29.00
2022-07-30T08:22:17.447Z,29.10
2022-07-30T08:25:22.341Z,29.30
2022-07-30T08:28:36.232Z,29.10
2022-07-30T08:31:38.807Z,29.40
2022-07-30T08:34:40.818Z,29.20
2022-07-30T08:37:44.166Z,29.00
2022-07-30T08:40:46.491Z,29.10
2022-07-30T08:43:51.355Z,29.50
2022-07-30T08:46:56.346Z,29.20
2022-07-30T08:50:01.742Z,29.80
2022-07-30T08:53:04.224Z,30.60
2022-07-30T08:56:07.546Z,30.80
2022-07-30T08:59:09.657Z,30.00
2022-07-30T09:02:13.028Z,29.50
2022-07-30T09:05:15.375Z,29.70
2022-07-30T09:08:18.690Z,29.60
2022-07-30T09:11:22.203Z,29.00
2022-07-30T09:14:24.382Z,28.40
2022-07-30T09:17:59.071Z,28.40
2022-07-30T09:21:14.570Z,28.40
2022-07-30T09:24:16.580Z,29.10
2022-07-30T09:27:18.712Z,29.30
2022-07-30T09:30:20.728Z,29.50
2022-07-30T09:33:45.148Z,29.10
2022-07-30T09:36:49.539Z,30.40
2022-07-30T09:39:59.229Z,29.50
2022-07-30T09:43:07.776Z,29.40
2022-07-30T09:46:10.931Z,29.10
2022-07-30T09:49:21.532Z,29.50
2022-07-30T09:52:29.703Z,29.40
2022-07-30T09:55:35.259Z,29.60
2022-07-30T09:58:40.309Z,29.80
2022-07-30T10:01:54.902Z,30.00
2022-07-30T10:05:14.569Z,29.60
2022-07-30T10:08:16.983Z,29.60
2022-07-30T10:11:23.837Z,29.50
2022-07-30T10:14:31.361Z,29.50
2022-07-30T10:17:34.676Z,29.40
2022-07-30T10:20:38.576Z,30.40
2022-07-30T10:23:44.343Z,30.20
2022-07-30T10:26:47.886Z,30.00
2022-07-30T10:29:51.328Z,30.90
2022-07-30T10:32:53.597Z,30.90
2022-07-30T10:35:56.758Z,32.00
2022-07-30T10:38:59.034Z,31.00
2022-07-30T10:42:41.835Z,31.00
2022-07-30T10:46:05.112Z,31.70
2022-07-30T10:49:18.601Z,31.10
2022-07-30T10:52:57.656Z,32.20
2022-07-30T10:56:15.566Z,32.70
2022-07-30T10:59:17.702Z,32.90
2022-07-30T11:02:20.486Z,33.00
2022-07-30T11:05:43.935Z,33.70
2022-07-30T11:08:48.490Z,33.90
2022-07-30T11:12:01.497Z,34.10
2022-07-30T11:15:18.411Z,34.60
2022-07-30T11:18:22.052Z,35.40
2022-07-30T11:21:27.228Z,34.80
2022-07-30T11:24:48.942Z,35.50
2022-07-30T11:27:51.663Z,34.60
2022-07-30T11:30:55.489Z,35.60
2022-07-30T11:34:20.609Z,34.60
2022-07-30T11:37:32.067Z,35.90
2022-07-30T11:40:36.962Z,35.90
2022-07-30T11:43:41.577Z,36.20
2022-07-30T11:46:50.156Z,36.40
2022-07-30T11:49:54.952Z,37.30
2022-07-30T11:53:05.578Z,37.10
2022-07-30T11:56:09.472Z,38.70
2022-07-30T11:59:16.151Z,38.00
2022-07-30T12:02:18.148Z,38.60
2022-07-30T12:05:26.075Z,39.60
2022-07-30T12:08:35.738Z,38.80
2022-07-30T12:11:38.585Z,40.70
2022-07-30T12:14:42.054Z,42.80
2022-07-30T12:17:45.568Z,42.60
2022-07-30T12:21:00.854Z,41.60
2022-07-30T12:24:13.694Z,41.60
2022-07-30T12:27:17.937Z,41.10
2022-07-30T12:30:20.244Z,40.10
2022-07-30T12:33:25.946Z,39.50
2022-07-30T12:36:32.349Z,39.60
2022-07-30T12:39:34.464Z,39.90
2022-07-30T12:42:37.252Z,39.50
2022-07-30T12:45:51.692Z,39.90
2022-07-30T12:49:16.686Z,40.00
2022-07-30T12:52:34.473Z,40.50
2022-07-30T12:55:37.119Z,40.50
2022-07-30T12:58:39.474Z,42.40
2022-07-30T13:01:45.899Z,41.30
2022-07-30T13:04:59.010Z,41.50
2022-07-30T13:08:13.438Z,41.50
2022-07-30T13:11:16.606Z,42.40
2022-07-30T13:14:18.804Z,43.30
2022-07-30T13:17:25.660Z,42.90
2022-07-30T13:20:27.934Z,44.50
2022-07-30T13:23:30.197Z,44.90
2022-07-30T13:26:34.583Z,43.70
2022-07-30T13:29:36.503Z,45.70
2022-07-30T13:32:39.951Z,44.80
2022-07-30T13:35:41.984Z,44.50
2022-07-30T13:38:45.339Z,45.90
2022-07-30T13:41:54.055Z,45.60
2022-07-30T13:44:57.187Z,45.20
2022-07-30T13:47:59.413Z,45.70
2022-07-30T13:51:03.200Z,44.80
2022-07-30T13:54:05.167Z,43.50
2022-07-30T13:57:07.328Z,44.40
2022-07-30T14:00:10.008Z,44.90
2022-07-30T14:03:12.489Z,47.00
2022-07-30T14:06:14.406Z,47.80
2022-07-30T14:09:17.175Z,47.20
2022-07-30T14:12:19.117Z,46.70
2022-07-30T14:15:25.242Z,47.10
2022-07-30T14:18:27.202Z,47.70
2022-07-30T14:21:29.412Z,48.30
2022-07-30T14:24:31.435Z,48.30
2022-07-30T14:27:33.898Z,47.40
2022-07-30T14:30:37.232Z,46.40
2022-07-30T14:33:39.561Z,45.70
2022-07-30T14:36:41.485Z,46.20
2022-07-30T14:39:43.821Z,46.00
2022-07-30T14:42:47.475Z,46.70
2022-07-30T14:45:51.153Z,47.50
2022-07-30T14:48:53.206Z,47.20
2022-07-30T14:51:55.653Z,47.30
2022-07-30T14:54:57.685Z,46.30
2022-07-30T14:57:59.927Z,47.70
2022-07-30T15:01:16.398Z,48.10
2022-07-30T15:04:19.155Z,48.90
2022-07-30T15:07:21.169Z,48.80
2022-07-30T15:10:23.368Z,48.10
2022-07-30T15:13:27.249Z,48.20
2022-07-30T15:16:30.226Z,48.00
2022-07-30T15:19:33.072Z,48.70
2022-07-30T15:22:35.990Z,48.70
2022-07-30T15:25:38.519Z,47.70
2022-07-30T15:28:41.097Z,47.10
2022-07-30T15:31:43.474Z,47.00
2022-07-30T15:34:46.249Z,46.40
2022-07-30T15:37:48.405Z,47.40
2022-07-30T15:40:50.642Z,47.30
2022-07-30T15:43:52.621Z,46.00
2022-07-30T15:46:55.089Z,45.90
2022-07-30T15:49:58.113Z,44.80
2022-07-30T15:53:00.277Z,44.30
2022-07-30T15:56:02.387Z,44.50
2022-07-30T15:59:04.682Z,43.10
2022-07-30T16:02:06.842Z,44.80
2022-07-30T16:05:13.950Z,44.00
2022-07-30T16:08:17.115Z,44.10
2022-07-30T16:11:19.373Z,43.70
2022-07-30T16:14:22.471Z,43.20
2022-07-30T16:17:24.661Z,43.90
2022-07-30T16:20:26.641Z,43.40
2022-07-30T16:23:36.563Z,44.30
2022-07-30T16:26:40.095Z,42.60
2022-07-30T16:29:42.262Z,42.80
2022-07-30T16:32:44.261Z,42.90
2022-07-30T16:35:48.911Z,44.00
2022-07-30T16:38:51.467Z,43.90
2022-07-30T16:41:53.615Z,44.00
2022-07-30T16:44:55.618Z,43.90
2022-07-30T16:47:57.756Z,43.10
2022-07-30T16:51:00.307Z,42.90
2022-07-30T16:54:02.711Z,42.20
2022-07-30T16:57:10.300Z,42.30
2022-07-30T17:00:13.206Z,43.50
2022-07-30T17:03:18.228Z,44.10
2022-07-30T17:06:22.547Z,44.90
2022-07-30T17:09:24.639Z,44.40
2022-07-30T17:12:27.573Z,46.10
2022-07-30T17:15:32.139Z,45.80
2022-07-30T17:18:35.189Z,46.20
2022-07-30T17:21:38.166Z,44.70
2022-07-30T17:24:41.235Z,46.30
2022-07-30T17:27:43.238Z,45.70
2022-07-30T17:30:46.492Z,46.50
2022-07-30T17:33:48.791Z,46.90
2022-07-30T17:36:52.387Z,46.10
2022-07-30T17:40:19.188Z,46.00
2022-07-30T17:43:17.702Z,46.30
2022-07-30T17:46:20.858Z,45.30
2022-07-30T17:49:24.157Z,46.20
2022-07-30T17:52:26.513Z,45.10
2022-07-30T17:55:28.768Z,44.10
2022-07-30T17:58:30.728Z,43.70
2022-07-30T18:01:33.180Z,42.50
2022-07-30T18:04:35.502Z,44.20
2022-07-30T18:07:37.992Z,44.00
2022-07-30T18:10:41.078Z,44.50
2022-07-30T18:13:43.690Z,45.30
2022-07-30T18:16:45.883Z,45.50
2022-07-30T18:19:51.415Z,46.50
2022-07-30T18:22:57.192Z,46.40
2022-07-30T18:25:59.401Z,46.60
2022-07-30T18:29:01.364Z,45.50
2022-07-30T18:32:04.484Z,45.10
2022-07-30T18:35:10.820Z,44.50
2022-07-30T18:38:19.965Z,44.70
2022-07-30T18:41:22.344Z,44.20
2022-07-30T18:44:27.095Z,43.30
2022-07-30T18:47:29.358Z,43.20
2022-07-30T18:50:32.886Z,43.10
2022-07-30T18:53:35.019Z,43.40
2022-07-30T18:56:37.164Z,42.50
2022-07-30T18:59:39.258Z,43.50
2022-07-30T19:02:41.441Z,43.20
2022-07-30T19:05:43.454Z,43.90
2022-07-30T19:08:46.007Z,42.70
2022-07-30T19:11:48.242Z,41.90
2022-07-30T19:14:50.606Z,41.20
2022-07-30T19:17:53.413Z,41.30
2022-07-30T19:20:55.707Z,41.10
2022-07-30T19:23:58.314Z,41.50
2022-07-30T19:27:00.493Z,42.30
2022-07-30T19:30:03.564Z,42.90
2022-07-30T19:33:15.647Z,43.10
2022-07-30T19:36:20.887Z,42.90
2022-07-30T19:39:23.255Z,43.60
2022-07-30T19:42:28.902Z,43.60
2022-07-30T19:45:46.770Z,42.80
2022-07-30T19:52:27.360Z,42.30
2022-07-30T19:55:35.344Z,42.40
2022-07-30T19:58:39.968Z,43.00
2022-07-30T20:01:51.757Z,42.00
2022-07-30T20:04:54.339Z,42.00
2022-07-30T20:07:58.715Z,42.30
2022-07-30T20:11:20.874Z,42.10
2022-07-30T20:14:36.992Z,42.20
2022-07-30T20:17:46.398Z,42.60
2022-07-30T20:20:53.199Z,42.90
2022-07-30T20:23:59.762Z,43.50
2022-07-30T20:27:10.138Z,43.70
2022-07-30T20:33:50.120Z,43.80
2022-07-30T20:36:53.864Z,43.80
2022-07-30T20:39:58.365Z,44.80
2022-07-30T20:43:02.865Z,44.80
2022-07-30T20:46:12.012Z,44.70
2022-07-30T20:49:17.875Z,44.70
2022-07-30T20:52:23.838Z,44.90
2022-07-30T20:55:26.252Z,45.60
2022-07-30T20:58:29.337Z,46.00
2022-07-30T21:01:31.722Z,46.10
2022-07-30T21:04:37.046Z,46.30
2022-07-30T21:07:39.365Z,45.70
2022-07-30T21:10:46.817Z,46.40
2022-07-30T21:13:49.061Z,45.30
2022-07-30T21:16:55.860Z,45.70
2022-07-30T21:19:58.316Z,45.70
2022-07-30T21:23:10.157Z,45.20
2022-07-30T21:26:13.934Z,45.50
2022-07-30T21:29:17.400Z,45.20
2022-07-30T21:32:20.554Z,44.50
2022-07-30T21:35:31.800Z,44.30
2022-07-30T21:38:34.609Z,43.60
2022-07-30T21:41:40.421Z,43.00
2022-07-30T21:44:42.995Z,42.70
2022-07-30T21:47:47.686Z,42.50
2022-07-30T21:50:50.250Z,43.20
2022-07-30T21:53:52.657Z,42.50
2022-07-30T21:56:56.433Z,41.90
2022-07-30T22:00:00.498Z,41.40
2022-07-30T22:03:02.779Z,41.00
2022-07-30T22:06:21.589Z,41.40
2022-07-30T22:09:33.191Z,41.10
2022-07-30T22:12:36.431Z,41.80
2022-07-30T22:15:39.837Z,41.50
2022-07-30T22:18:43.089Z,42.60
2022-07-30T22:21:47.861Z,43.40
2022-07-30T22:24:50.258Z,42.50
2022-07-30T22:27:56.184Z,42.00
2022-07-30T22:30:58.927Z,42.10
2022-07-30T22:34:01.115Z,41.60
2022-07-30T22:37:03.158Z,41.20
2022-07-30T22:40:07.252Z,41.10
2022-07-30T22:43:12.671Z,40.70
2022-07-30T22:46:30.618Z,40.50
2022-07-30T22:49:46.035Z,40.30
2022-07-30T22:53:09.758Z,39.80
2022-07-30T22:56:20.263Z,39.40
2022-07-30T22:59:57.612Z,39.40
2022-07-30T23:02:49.603Z,39.50
2022-07-30T23:05:56.038Z,38.80
2022-07-30T23:08:58.946Z,38.90
2022-07-30T23:12:01.403Z,38.50
2022-07-30T23:12:15.153Z,42.50
2022-07-30T23:12:19.226Z,43.50
2022-07-30T23:15:04.914Z,38.20
2022-07-30T23:18:07.075Z,38.20
2022-07-30T23:21:09.944Z,38.20
2022-07-30T23:24:12.097Z,37.90
2022-07-30T23:27:19.782Z,37.70
2022-07-30T23:30:21.945Z,37.60
2022-07-30T23:33:23.929Z,37.70
2022-07-30T23:36:26.076Z,38.00
2022-07-30T23:39:28.382Z,37.90
2022-07-30T23:42:30.521Z,38.10
2022-07-30T23:45:32.530Z,38.30
2022-07-30T23:48:34.649Z,38.50
2022-07-30T23:51:36.737Z,39.00
2022-07-30T23:54:38.960Z,38.60
2022-07-30T23:57:41.002Z,38.40
